Meteo Giornale » Osservazioni meteo Stati Uniti (USA) » McConnell
ore: 15:55 - Osservazioni Meteo McConnell
Lat. 37° 37' N Lon. 97° 16' W Alt. 418 metri s.l.m.
39 °C
Sereno
Temp. 24 Ore
24 °C
40 °C
Sud/Sud-Ovest
25.9 Km/h
Dew point 12 °C
Umidità 20 %
Visibilità 10 Km
Il sole sorge alle ore 06:58
Il sole tramonta alle ore 19:59
| Data e Ora | Cielo e Fenomeni | T °C | DP °C | Um. % | Pres. hPa | Vis. km | Vento km/h | |
|---|---|---|---|---|---|---|---|---|
| Oggi h: 15:55 | Sereno | 39 | 12 | 20 | 1013 | 10 | S/SO 25.9 | |
| Oggi h: 15:39 | Sereno | 39 | 14 | 22 | 1013 | 10 | S 25.9 | |
| Oggi h: 14:55 | Sereno | 39 | 14 | 22 | 1013 | 10 | S 29.6 | |
| Oggi h: 14:29 | Sereno | 39 | 15 | 24 | 1013 | 10 | S 33.3 | |
| Oggi h: 13:55 | Sereno | 39 | 15 | 24 | 1014 | 10 | S/SO 20.3 | |
| Oggi h: 13:47 | Sereno | 39 | 15 | 24 | 1014 | 10 | S 27.8 | |
| Oggi h: 12:55 | Sereno | 37 | 17 | 30 | 1014 | 10 | S/SO 20.3 | |
| Oggi h: 11:55 | Sereno | 36 | 17 | 32 | 1015 | 10 | S/SO 24 | |
| Oggi h: 10:55 | Sereno | 34 | 17 | 36 | 1015 | 10 | SO 22.2 | |
| Oggi h: 09:55 | Sereno | 32 | 17 | 40 | 1015 | 10 | O/SO 20.3 | |
| Oggi h: 08:55 | Sereno | 30 | 16 | 42 | 1015 | 10 | S/SO 18.5 | |
| Oggi h: 07:55 | Sereno | 27 | 15 | 47 | 1015 | 10 | S/SO 16.7 | |
| Oggi h: 06:55 | Sereno | 24 | 16 | 60 | 1015 | 10 | S 11.1 | |
| Oggi h: 05:55 | Sereno | 24 | 16 | 60 | 1014 | 10 | SO 13 | |
| Oggi h: 04:55 | Sereno | 26 | 16 | 54 | 1013 | 10 | S/SO 14.8 | |
| Oggi h: 03:55 | Sereno | 27 | 16 | 50 | 1013 | 10 | SO 14.8 | |
| Oggi h: 02:55 | Sereno | 29 | 16 | 45 | 1012 | 10 | S/SO 18.5 | |
| Oggi h: 01:55 | Sereno | 29 | 16 | 45 | 1013 | 10 | S/SO 18.5 | |
| Oggi h: 00:55 | Sereno | 30 | 16 | 42 | 1012 | 10 | S 24 | |
| Ieri h: 23:55 | Sereno | 31 | 15 | 37 | 1011 | 10 | S 25.9 | |
| Ieri h: 22:55 | Sereno | 32 | 15 | 35 | 1011 | 10 | S 20.3 | |
| Ieri h: 21:55 | Sereno | 33 | 16 | 36 | 1011 | 10 | S 27.8 | |
| Ieri h: 20:55 | Sereno | 34 | 15 | 32 | 1010 | 10 | S 18.5 | |
| Ieri h: 19:55 | Sereno | 36 | 16 | 30 | 1010 | 10 | S 24 | |
| Ieri h: 18:55 | Sereno | 38 | 16 | 27 | 1009 | 10 | S 29.6 | |
| Ieri h: 17:55 | Sereno | 40 | 16 | 24 | 1009 | 10 | S/SO 35.2 | |
| Ieri h: 16:55 | Sereno | 40 | 16 | 24 | 1009 | 10 | S/SO 29.6 | |



